createdAt,value
2022-12-28T00:03:33.105Z,-3.03
2022-12-28T00:05:59.956Z,-3.15
2022-12-28T00:08:26.796Z,-3.05
2022-12-28T00:11:08.998Z,-3.23
2022-12-28T00:13:38.147Z,-3.11
2022-12-28T00:16:21.304Z,-3.28
2022-12-28T00:18:48.132Z,-3.20
2022-12-28T00:21:14.862Z,-3.26
2022-12-28T00:23:41.642Z,-3.23
2022-12-28T00:26:10.557Z,-3.21
2022-12-28T00:28:37.615Z,-3.12
2022-12-28T00:31:05.012Z,-3.14
2022-12-28T00:33:32.651Z,-3.01
2022-12-28T00:36:01.890Z,-3.07
2022-12-28T00:38:33.859Z,-3.15
2022-12-28T00:41:00.757Z,-3.13
2022-12-28T00:43:27.899Z,-3.14
2022-12-28T00:45:54.762Z,-3.06
2022-12-28T00:48:21.806Z,-3.29
2022-12-28T00:50:49.315Z,-3.26
2022-12-28T00:53:16.287Z,-3.49
2022-12-28T00:55:43.332Z,-3.23
2022-12-28T00:58:10.282Z,-3.33
2022-12-28T01:00:37.712Z,-3.06
2022-12-28T01:03:05.260Z,-3.15
2022-12-28T01:05:32.106Z,-2.95
2022-12-28T01:07:58.839Z,-2.75
2022-12-28T01:10:25.680Z,-2.90
2022-12-28T01:12:53.871Z,-3.10
2022-12-28T01:15:20.615Z,-3.08
2022-12-28T01:17:47.352Z,-3.05
2022-12-28T01:20:14.086Z,-3.10
2022-12-28T01:22:40.906Z,-3.27
2022-12-28T01:25:08.125Z,-3.21
2022-12-28T01:27:34.897Z,-3.23
2022-12-28T01:30:01.732Z,-3.19
2022-12-28T01:32:28.575Z,-3.18
2022-12-28T01:34:55.389Z,-3.34
2022-12-28T01:37:22.466Z,-3.40
2022-12-28T01:39:49.249Z,-3.59
2022-12-28T01:42:18.039Z,-3.44
2022-12-28T01:44:48.025Z,-3.48
2022-12-28T01:47:18.750Z,-3.54
2022-12-28T01:49:51.576Z,-3.57
2022-12-28T01:52:38.705Z,-3.54
2022-12-28T01:55:28.769Z,-3.63
2022-12-28T01:58:08.616Z,-3.78
2022-12-28T02:00:35.671Z,-3.76
2022-12-28T02:03:07.258Z,-3.73
2022-12-28T02:05:38.569Z,-3.80
2022-12-28T02:08:13.859Z,-3.82
2022-12-28T02:10:45.766Z,-3.85
2022-12-28T02:13:15.746Z,-3.74
2022-12-28T02:15:46.409Z,-3.68
2022-12-28T02:18:16.169Z,-3.72
2022-12-28T02:21:10.402Z,-3.82
2022-12-28T02:24:32.312Z,-3.84
2022-12-28T02:27:35.892Z,-3.84
2022-12-28T02:30:09.737Z,-3.83
2022-12-28T02:32:45.421Z,-3.80
2022-12-28T02:35:39.004Z,-3.76
2022-12-28T02:38:23.816Z,-3.95
2022-12-28T02:41:05.390Z,-4.09
2022-12-28T02:43:33.797Z,-3.99
2022-12-28T02:46:30.215Z,-4.06
2022-12-28T02:49:15.660Z,-4.13
2022-12-28T02:51:50.806Z,-4.16
2022-12-28T02:54:45.255Z,-4.15
2022-12-28T02:57:49.517Z,-4.15
2022-12-28T03:00:21.366Z,-4.32
2022-12-28T03:02:53.345Z,-4.16
2022-12-28T03:05:52.716Z,-4.36
2022-12-28T03:08:31.875Z,-4.37
2022-12-28T03:11:08.519Z,-4.13
2022-12-28T03:13:43.413Z,-4.24
2022-12-28T03:16:58.076Z,-4.20
2022-12-28T03:19:53.182Z,-4.37
2022-12-28T03:22:40.527Z,-4.36
2022-12-28T03:25:32.378Z,-4.29
2022-12-28T03:28:22.972Z,-4.12
2022-12-28T03:31:08.934Z,-4.22
2022-12-28T03:33:48.518Z,-4.50
2022-12-28T03:36:42.844Z,-4.22
2022-12-28T03:39:37.376Z,-4.30
2022-12-28T03:42:34.835Z,-4.38
2022-12-28T03:45:10.757Z,-4.38
2022-12-28T03:47:40.073Z,-4.38
2022-12-28T03:50:07.551Z,-4.50
2022-12-28T03:52:34.420Z,-4.55
2022-12-28T03:55:01.292Z,-4.58
2022-12-28T03:57:28.415Z,-4.69
2022-12-28T03:59:55.903Z,-4.77
2022-12-28T04:02:22.721Z,-4.63
2022-12-28T04:04:49.582Z,-4.46
2022-12-28T04:07:16.339Z,-4.37
2022-12-28T04:09:43.141Z,-4.44
2022-12-28T04:12:12.429Z,-4.44
2022-12-28T04:14:39.205Z,-4.48
2022-12-28T04:17:06.190Z,-4.45
2022-12-28T04:19:32.998Z,-4.49
2022-12-28T04:21:59.736Z,-4.45
2022-12-28T04:24:26.521Z,-4.37
2022-12-28T04:26:53.359Z,-4.49
2022-12-28T04:29:20.161Z,-4.48
2022-12-28T04:31:47.171Z,-4.46
2022-12-28T04:34:14.299Z,-4.45
2022-12-28T04:36:42.784Z,-4.41
2022-12-28T04:39:10.106Z,-4.44
2022-12-28T04:41:36.909Z,-4.67
2022-12-28T04:44:03.685Z,-4.55
2022-12-28T04:46:30.487Z,-4.58
2022-12-28T04:48:57.307Z,-4.86
2022-12-28T04:51:26.861Z,-4.53
2022-12-28T04:53:55.322Z,-4.68
2022-12-28T04:56:37.259Z,-4.66
2022-12-28T04:59:04.019Z,-4.75
2022-12-28T05:01:31.131Z,-4.79
2022-12-28T05:03:59.880Z,-4.69
2022-12-28T05:06:27.892Z,-4.75
2022-12-28T05:08:56.033Z,-4.63
2022-12-28T05:11:25.387Z,-4.60
2022-12-28T05:13:52.557Z,-4.71
2022-12-28T05:16:23.013Z,-4.67
2022-12-28T05:18:49.870Z,-4.65
2022-12-28T05:21:21.408Z,-4.55
2022-12-28T05:23:49.226Z,-4.56
2022-12-28T05:26:21.466Z,-4.47
2022-12-28T05:28:48.766Z,-4.45
2022-12-28T05:31:18.271Z,-4.55
2022-12-28T05:33:45.143Z,-4.49
2022-12-28T05:36:21.387Z,-4.53
2022-12-28T05:38:48.460Z,-4.52
2022-12-28T05:41:18.298Z,-4.47
2022-12-28T05:43:45.973Z,-4.57
2022-12-28T05:46:15.798Z,-4.63
2022-12-28T05:48:43.643Z,-4.47
2022-12-28T05:51:16.812Z,-4.50
2022-12-28T05:53:44.183Z,-4.60
2022-12-28T05:56:14.566Z,-4.48
2022-12-28T05:58:43.263Z,-4.50
2022-12-28T06:01:18.615Z,-4.50
2022-12-28T06:03:47.069Z,-4.45
2022-12-28T06:06:16.527Z,-4.61
2022-12-28T06:08:44.499Z,-4.36
2022-12-28T06:11:14.202Z,-4.40
2022-12-28T06:13:41.035Z,-4.58
2022-12-28T06:16:15.717Z,-4.40
2022-12-28T06:18:43.294Z,-4.41
2022-12-28T06:21:15.736Z,-4.36
2022-12-28T06:23:43.751Z,-4.32
2022-12-28T06:26:13.392Z,-4.31
2022-12-28T06:28:41.325Z,-4.32
2022-12-28T06:31:14.438Z,-4.34
2022-12-28T06:33:41.708Z,-4.27
2022-12-28T06:36:20.225Z,-4.35
2022-12-28T06:38:48.452Z,-4.36
2022-12-28T06:41:16.253Z,-4.37
2022-12-28T06:43:44.491Z,-4.67
2022-12-28T06:46:12.293Z,-4.43
2022-12-28T06:48:47.547Z,-4.38
2022-12-28T06:51:21.334Z,-4.32
2022-12-28T06:53:49.653Z,-4.35
2022-12-28T06:56:28.647Z,-4.25
2022-12-28T06:59:02.341Z,-4.30
2022-12-28T07:01:33.607Z,-4.25
2022-12-28T07:04:01.089Z,-4.23
2022-12-28T07:06:29.493Z,-3.96
2022-12-28T07:09:01.959Z,-4.03
2022-12-28T07:11:29.617Z,-4.31
2022-12-28T07:13:56.806Z,-4.21
2022-12-28T07:16:25.206Z,-4.07
2022-12-28T07:18:52.113Z,-4.03
2022-12-28T07:21:21.605Z,-3.96
2022-12-28T07:23:49.768Z,-4.28
2022-12-28T07:26:20.539Z,-4.22
2022-12-28T07:28:49.730Z,-3.94
2022-12-28T07:31:22.715Z,-3.85
2022-12-28T07:33:51.086Z,-3.79
2022-12-28T07:36:20.116Z,-3.88
2022-12-28T07:38:47.113Z,-3.87
2022-12-28T07:41:22.401Z,-3.81
2022-12-28T07:43:49.381Z,-3.84
2022-12-28T07:46:19.487Z,-3.81
2022-12-28T07:48:46.947Z,-3.70
2022-12-28T07:51:20.630Z,-3.61
2022-12-28T07:53:49.823Z,-3.44
2022-12-28T07:56:16.967Z,-3.21
2022-12-28T07:58:51.673Z,-3.08
2022-12-28T08:01:20.501Z,-2.90
2022-12-28T08:03:47.567Z,-2.76
2022-12-28T08:06:20.126Z,-2.70
2022-12-28T08:08:48.956Z,-2.68
2022-12-28T08:11:18.184Z,-2.67
2022-12-28T08:13:47.103Z,-2.37
2022-12-28T08:16:15.662Z,-2.24
2022-12-28T08:18:42.785Z,-2.09
2022-12-28T08:21:15.093Z,-1.95
2022-12-28T08:23:42.483Z,-2.03
2022-12-28T08:26:40.254Z,-2.00
2022-12-28T08:29:11.052Z,-1.95
2022-12-28T08:31:40.658Z,-1.86
2022-12-28T08:34:09.920Z,-1.76
2022-12-28T08:36:36.700Z,-1.70
2022-12-28T08:39:04.059Z,-1.63
2022-12-28T08:41:31.376Z,-1.66
2022-12-28T08:43:58.632Z,-1.54
2022-12-28T08:46:28.455Z,-1.42
2022-12-28T08:48:57.051Z,-1.40
2022-12-28T08:51:28.154Z,-1.30
2022-12-28T08:53:54.970Z,-1.36
2022-12-28T08:56:24.468Z,-1.42
2022-12-28T08:58:52.184Z,-1.44
2022-12-28T09:01:27.700Z,-1.40
2022-12-28T09:03:56.553Z,-1.11
2022-12-28T09:06:27.389Z,-1.12
2022-12-28T09:09:05.367Z,-1.36
2022-12-28T09:11:37.248Z,-1.23
2022-12-28T09:14:06.263Z,-1.13
2022-12-28T09:16:33.281Z,-1.14
2022-12-28T09:19:02.252Z,-1.03
2022-12-28T09:21:31.945Z,-0.93
2022-12-28T09:23:58.838Z,-0.77
2022-12-28T09:26:28.346Z,-0.75
2022-12-28T09:28:58.546Z,-0.86
2022-12-28T09:31:26.313Z,-0.83
2022-12-28T09:36:49.366Z,-0.74
2022-12-28T09:39:19.475Z,-0.68
2022-12-28T09:41:50.311Z,-0.74
2022-12-28T09:44:30.579Z,-0.63
2022-12-28T09:47:06.203Z,-0.51
2022-12-28T09:50:12.127Z,-0.42
2022-12-28T09:52:56.685Z,-0.29
2022-12-28T09:55:25.237Z,-0.21
2022-12-28T09:57:55.940Z,0.16
2022-12-28T10:00:39.576Z,0.02
2022-12-28T10:03:32.212Z,-0.02
2022-12-28T10:05:59.852Z,0.23
2022-12-28T10:08:28.954Z,0.51
2022-12-28T10:11:02.042Z,0.47
2022-12-28T10:13:54.103Z,0.49
2022-12-28T10:16:23.054Z,0.67
2022-12-28T10:18:50.205Z,0.66
2022-12-28T10:21:26.855Z,0.78
2022-12-28T10:24:29.790Z,1.14
2022-12-28T10:26:46.167Z,0.99
2022-12-28T10:29:19.116Z,1.10
2022-12-28T10:32:06.801Z,1.21
2022-12-28T10:34:36.611Z,1.29
2022-12-28T10:37:15.402Z,1.34
2022-12-28T10:39:55.479Z,1.31
2022-12-28T10:42:41.473Z,1.23
2022-12-28T10:45:22.765Z,1.24
2022-12-28T10:47:53.406Z,1.32
2022-12-28T10:50:58.024Z,1.39
2022-12-28T10:53:29.621Z,1.75
2022-12-28T10:56:27.444Z,1.91
2022-12-28T10:59:17.611Z,1.91
2022-12-28T11:01:44.499Z,1.72
2022-12-28T11:04:20.550Z,1.83
2022-12-28T11:07:00.590Z,1.99
2022-12-28T11:09:30.513Z,2.02
2022-12-28T11:12:17.373Z,2.08
2022-12-28T11:14:44.286Z,2.20
2022-12-28T11:17:20.604Z,2.21
2022-12-28T11:19:49.967Z,2.08
2022-12-28T11:22:22.584Z,2.13
2022-12-28T11:24:49.554Z,2.02
2022-12-28T11:27:19.934Z,2.02
2022-12-28T11:29:49.474Z,2.06
2022-12-28T11:32:27.122Z,2.18
2022-12-28T11:34:56.441Z,2.04
2022-12-28T11:37:24.026Z,1.96
2022-12-28T11:39:52.823Z,2.18
2022-12-28T11:42:41.137Z,2.24
2022-12-28T11:45:17.159Z,2.43
2022-12-28T11:47:45.857Z,2.59
2022-12-28T11:50:34.822Z,2.64
2022-12-28T11:53:03.079Z,2.80
2022-12-28T11:55:58.073Z,2.88
2022-12-28T11:58:30.874Z,2.98
2022-12-28T12:01:05.620Z,2.94
2022-12-28T12:03:58.557Z,2.95
2022-12-28T12:06:44.034Z,2.97
2022-12-28T12:09:25.910Z,2.93
2022-12-28T12:12:00.800Z,3.12
2022-12-28T12:14:35.179Z,3.11
2022-12-28T12:17:08.261Z,3.11
2022-12-28T12:19:42.644Z,3.05
2022-12-28T12:22:28.858Z,2.88
2022-12-28T12:25:02.814Z,2.96
2022-12-28T12:28:01.246Z,3.07
2022-12-28T12:30:30.191Z,2.99
2022-12-28T12:33:04.810Z,3.03
2022-12-28T12:35:58.317Z,3.40
2022-12-28T12:38:46.079Z,3.50
2022-12-28T12:41:40.045Z,3.47
2022-12-28T12:44:09.639Z,3.44
2022-12-28T12:47:08.562Z,3.46
2022-12-28T12:49:48.485Z,3.38
2022-12-28T12:52:18.307Z,3.50
2022-12-28T12:55:19.763Z,3.55
2022-12-28T12:57:53.040Z,3.50
2022-12-28T13:00:24.483Z,3.66
2022-12-28T13:03:18.870Z,3.72
2022-12-28T13:05:52.703Z,3.84
2022-12-28T13:08:44.981Z,3.91
2022-12-28T13:11:12.751Z,4.02
2022-12-28T13:13:41.465Z,4.00
2022-12-28T13:16:16.433Z,4.18
2022-12-28T13:19:04.677Z,4.20
2022-12-28T13:21:44.783Z,4.36
2022-12-28T13:24:31.631Z,4.25
2022-12-28T13:27:00.180Z,4.20
2022-12-28T13:29:31.801Z,4.04
2022-12-28T13:31:58.703Z,3.94
2022-12-28T13:34:30.285Z,3.95
2022-12-28T13:37:02.281Z,3.81
2022-12-28T13:39:33.179Z,3.75
2022-12-28T13:42:11.565Z,3.80
2022-12-28T13:44:48.837Z,3.60
2022-12-28T13:47:30.815Z,3.54
2022-12-28T13:50:26.105Z,3.47
2022-12-28T13:53:11.854Z,3.44
2022-12-28T13:55:44.313Z,3.35
2022-12-28T13:58:16.422Z,3.27
2022-12-28T14:00:48.086Z,3.25
2022-12-28T14:03:16.334Z,3.28
2022-12-28T14:05:49.517Z,3.13
2022-12-28T14:08:18.194Z,3.17
2022-12-28T14:10:47.917Z,3.27
2022-12-28T14:13:18.327Z,3.17
2022-12-28T14:15:46.360Z,3.21
2022-12-28T14:18:18.671Z,3.41
2022-12-28T14:20:56.790Z,3.70
2022-12-28T14:23:26.907Z,3.74
2022-12-28T14:25:55.324Z,3.64
2022-12-28T14:28:23.730Z,3.43
2022-12-28T14:30:54.040Z,3.34
2022-12-28T14:33:25.434Z,3.23
2022-12-28T14:36:01.423Z,3.18
2022-12-28T14:38:34.211Z,3.22
2022-12-28T14:41:03.139Z,3.23
2022-12-28T14:43:35.902Z,3.27
2022-12-28T14:46:19.034Z,3.22
2022-12-28T14:48:46.204Z,3.25
2022-12-28T14:51:17.288Z,3.34
2022-12-28T14:56:34.984Z,3.28
2022-12-28T14:59:02.337Z,3.06
2022-12-28T15:00:26.582Z,3.33
2022-12-28T15:01:48.481Z,2.84
2022-12-28T15:04:26.184Z,2.94
2022-12-28T15:06:53.237Z,2.63
2022-12-28T15:09:19.975Z,2.36
2022-12-28T15:11:46.746Z,2.26
2022-12-28T15:14:13.519Z,2.15
2022-12-28T15:16:40.259Z,2.06
2022-12-28T15:19:07.083Z,2.13
2022-12-28T15:21:33.945Z,1.85
2022-12-28T15:24:00.689Z,1.40
2022-12-28T15:26:30.849Z,1.49
2022-12-28T15:28:57.594Z,1.30
2022-12-28T15:31:24.401Z,1.35
2022-12-28T15:33:51.177Z,1.17
2022-12-28T15:36:20.733Z,1.06
2022-12-28T15:38:49.004Z,1.10
2022-12-28T15:41:36.039Z,1.01
2022-12-28T15:44:03.959Z,0.81
2022-12-28T15:46:30.769Z,0.74
2022-12-28T15:48:57.902Z,0.51
2022-12-28T15:51:24.903Z,0.33
2022-12-28T15:53:51.667Z,0.32
2022-12-28T15:56:33.373Z,0.58
2022-12-28T15:59:01.637Z,0.32
2022-12-28T16:01:31.079Z,0.08
2022-12-28T16:04:00.411Z,0.13
2022-12-28T16:06:28.867Z,0.20
2022-12-28T16:08:57.438Z,-0.03
2022-12-28T16:11:24.728Z,-0.22
2022-12-28T16:14:03.060Z,-0.06
2022-12-28T16:16:32.619Z,-0.27
2022-12-28T16:18:59.718Z,-0.44
2022-12-28T16:21:27.165Z,-0.46
2022-12-28T16:23:54.697Z,-0.24
2022-12-28T16:26:22.255Z,-0.57
2022-12-28T16:28:49.137Z,-0.67
2022-12-28T16:31:30.898Z,-0.88
2022-12-28T16:34:03.028Z,-0.83
2022-12-28T16:36:30.118Z,-0.87
2022-12-28T16:38:57.724Z,-0.90
2022-12-28T16:41:27.843Z,-0.95
2022-12-28T16:44:05.926Z,-0.86
2022-12-28T16:46:32.717Z,-0.70
2022-12-28T16:49:02.078Z,-0.92
2022-12-28T16:51:30.820Z,-0.64
2022-12-28T16:53:57.608Z,-0.94
2022-12-28T16:56:24.720Z,-1.08
2022-12-28T16:58:55.946Z,-1.08
2022-12-28T17:01:23.254Z,-1.19
2022-12-28T17:03:50.354Z,-1.18
2022-12-28T17:06:17.317Z,-1.34
2022-12-28T17:08:44.307Z,-1.15
2022-12-28T17:11:12.225Z,-1.02
2022-12-28T17:13:39.537Z,-1.20
2022-12-28T17:16:07.640Z,-1.27
2022-12-28T17:18:34.838Z,-1.00
2022-12-28T17:21:06.700Z,-1.14
2022-12-28T17:23:36.548Z,-1.40
2022-12-28T17:26:03.395Z,-1.17
2022-12-28T17:28:30.111Z,-1.17
2022-12-28T17:31:14.296Z,-1.08
2022-12-28T17:33:45.694Z,-1.27
2022-12-28T17:36:12.837Z,-1.43
2022-12-28T17:38:39.963Z,-1.27
2022-12-28T17:41:09.080Z,-1.37
2022-12-28T17:43:36.047Z,-1.42
2022-12-28T17:46:03.717Z,-1.39
2022-12-28T17:48:31.179Z,-1.51
2022-12-28T17:51:03.526Z,-1.47
2022-12-28T17:53:32.751Z,-1.41
2022-12-28T17:56:07.390Z,-1.39
2022-12-28T17:58:34.604Z,-1.53
2022-12-28T18:01:01.849Z,-1.59
2022-12-28T18:03:33.717Z,-1.73
2022-12-28T18:06:00.897Z,-1.77
2022-12-28T18:08:28.145Z,-1.97
2022-12-28T18:10:55.747Z,-1.93
2022-12-28T18:13:23.741Z,-2.00
2022-12-28T18:15:50.706Z,-1.91
2022-12-28T18:18:18.201Z,-1.90
2022-12-28T18:20:45.629Z,-1.98
2022-12-28T18:23:12.851Z,-2.20
2022-12-28T18:25:40.019Z,-2.25
2022-12-28T18:28:07.519Z,-2.25
2022-12-28T18:30:35.636Z,-2.33
2022-12-28T18:33:02.802Z,-2.32
2022-12-28T18:35:30.177Z,-2.46
2022-12-28T18:37:57.364Z,-2.27
2022-12-28T18:40:24.495Z,-2.14
2022-12-28T18:42:52.119Z,-2.18
2022-12-28T18:45:19.784Z,-2.25
2022-12-28T18:47:46.971Z,-2.28
2022-12-28T18:50:15.682Z,-2.39
2022-12-28T18:52:44.788Z,-2.27
2022-12-28T18:55:11.727Z,-2.39
2022-12-28T18:57:40.431Z,-2.38
2022-12-28T19:00:10.448Z,-2.12
2022-12-28T19:02:37.679Z,-2.23
2022-12-28T19:05:05.355Z,-2.47
2022-12-28T19:07:32.300Z,-2.35
2022-12-28T19:10:13.066Z,-2.26
2022-12-28T19:12:42.241Z,-2.20
2022-12-28T19:15:09.761Z,-2.14
2022-12-28T19:17:36.951Z,-2.09
2022-12-28T19:20:05.369Z,-2.18
2022-12-28T19:22:32.999Z,-2.03
2022-12-28T19:25:01.599Z,-2.10
2022-12-28T19:27:28.594Z,-2.22
2022-12-28T19:29:55.445Z,-2.17
2022-12-28T19:32:22.306Z,-2.32
2022-12-28T19:34:49.256Z,-2.31
2022-12-28T19:37:16.370Z,-2.22
2022-12-28T19:39:43.418Z,-2.18
2022-12-28T19:42:10.702Z,-2.26
2022-12-28T19:44:37.708Z,-2.23
2022-12-28T19:47:05.714Z,-2.53
2022-12-28T19:49:33.107Z,-2.42
2022-12-28T19:52:02.316Z,-2.46
2022-12-28T19:54:30.034Z,-2.46
2022-12-28T19:56:57.476Z,-2.71
2022-12-28T19:59:25.013Z,-2.39
2022-12-28T20:01:51.967Z,-2.37
2022-12-28T20:04:18.945Z,-2.35
2022-12-28T20:06:46.033Z,-2.32
2022-12-28T20:09:14.402Z,-2.25
2022-12-28T20:11:42.402Z,-2.29
2022-12-28T20:14:13.123Z,-1.98
2022-12-28T20:16:41.046Z,-1.98
2022-12-28T20:19:09.719Z,-2.01
2022-12-28T20:21:38.678Z,-1.99
2022-12-28T20:24:06.588Z,-1.97
2022-12-28T20:26:34.237Z,-1.90
2022-12-28T20:29:03.456Z,-1.90
2022-12-28T20:31:31.596Z,-1.83
2022-12-28T20:33:58.800Z,-1.97
2022-12-28T20:36:28.024Z,-1.98
2022-12-28T20:38:55.800Z,-1.94
2022-12-28T20:41:48.624Z,-1.85
2022-12-28T20:44:28.308Z,-1.85
2022-12-28T20:46:56.705Z,-1.88
2022-12-28T20:49:25.899Z,-1.97
2022-12-28T20:51:54.841Z,-1.78
2022-12-28T20:54:22.875Z,-1.86
2022-12-28T20:56:55.386Z,-1.88
2022-12-28T20:59:25.055Z,-1.98
2022-12-28T21:01:54.058Z,-1.82
2022-12-28T21:04:25.191Z,-1.93
2022-12-28T21:06:54.557Z,-1.67
2022-12-28T21:09:22.262Z,-1.84
2022-12-28T21:11:49.085Z,-1.94
2022-12-28T21:14:16.201Z,-1.74
2022-12-28T21:16:43.106Z,-1.79
2022-12-28T21:19:10.719Z,-1.55
2022-12-28T21:21:37.850Z,-1.73
2022-12-28T21:24:04.795Z,-1.77
2022-12-28T21:26:32.236Z,-1.77
2022-12-28T21:28:59.526Z,-1.53
2022-12-28T21:31:26.350Z,-1.58
2022-12-28T21:33:56.613Z,-1.58
2022-12-28T21:36:23.510Z,-1.65
2022-12-28T21:38:51.192Z,-1.59
2022-12-28T21:41:38.868Z,-1.51
2022-12-28T21:44:11.287Z,-1.50
2022-12-28T21:46:38.096Z,-1.36
2022-12-28T21:49:05.557Z,-1.42
2022-12-28T21:51:35.308Z,-1.47
2022-12-28T21:54:14.455Z,-1.39
2022-12-28T21:56:43.746Z,-1.59
2022-12-28T21:59:12.535Z,-1.67
2022-12-28T22:02:00.074Z,-1.84
2022-12-28T22:04:46.488Z,-1.96
2022-12-28T22:07:16.456Z,-2.05
2022-12-28T22:10:01.690Z,-2.33
2022-12-28T22:12:34.686Z,-2.27
2022-12-28T22:15:30.982Z,-2.19
2022-12-28T22:18:03.388Z,-2.27
2022-12-28T22:20:31.291Z,-2.37
2022-12-28T22:23:01.105Z,-2.42
2022-12-28T22:25:29.198Z,-2.26
2022-12-28T22:27:56.765Z,-2.28
2022-12-28T22:30:24.183Z,-2.29
2022-12-28T22:32:50.988Z,-2.42
2022-12-28T22:35:19.665Z,-2.50
2022-12-28T22:37:46.599Z,-2.74
2022-12-28T22:40:14.086Z,-2.47
2022-12-28T22:42:46.103Z,-2.57
2022-12-28T22:45:18.567Z,-2.70
2022-12-28T22:47:46.004Z,-2.85
2022-12-28T22:50:15.431Z,-2.78
2022-12-28T22:52:42.681Z,-2.68
2022-12-28T22:55:10.300Z,-2.62
2022-12-28T22:57:37.321Z,-2.73
2022-12-28T23:00:10.498Z,-2.66
2022-12-28T23:02:37.599Z,-2.77
2022-12-28T23:05:05.859Z,-2.65
2022-12-28T23:07:34.740Z,-2.77
2022-12-28T23:10:01.549Z,-2.86
2022-12-28T23:12:28.268Z,-2.79
2022-12-28T23:15:13.766Z,-2.58
2022-12-28T23:17:40.586Z,-2.67
2022-12-28T23:20:26.692Z,-2.80
2022-12-28T23:23:12.262Z,-2.89
2022-12-28T23:26:00.971Z,-3.03
2022-12-28T23:28:27.879Z,-2.84
2022-12-28T23:30:56.599Z,-2.69
2022-12-28T23:33:23.852Z,-2.80
2022-12-28T23:35:50.767Z,-3.01
2022-12-28T23:38:17.751Z,-3.08
2022-12-28T23:40:44.543Z,-2.94
2022-12-28T23:43:11.325Z,-3.07
2022-12-28T23:45:38.105Z,-3.27
2022-12-28T23:48:05.608Z,-3.23
2022-12-28T23:50:32.417Z,-3.34
2022-12-28T23:52:59.191Z,-3.39
2022-12-28T23:55:26.038Z,-3.54
2022-12-28T23:57:52.859Z,-3.49
